Terminal Aerodrome Forecast
Issued by NWS Spokane, WA

Home | Current Version | Previous Version | Text Only | Print | Product List | Glossary On
Versions: 1 2 3 4 5 6 7 8 9 10 11 12 13 14 15 16 17 18 19
000
FTUS46 KOTX 302335
TAFEAT
TAF
KEAT 302335Z 3100/3124 VRB04KT P6SM VCSH SCT003 OVC020
      TEMPO 3100/3104 5SM -RA BR BKN004 OVC018
     FM310600 29003KT 4SM -RA BKN008 OVC015
     FM311900 31006KT P6SM -SHRA OVC060=

USA.gov is the U.S. government's official web portal to all federal, state and local government web resources and services.